sensor_id;sensor_type;location;lat;lon;timestamp;pressure;altitude;pressure_sealevel;temperature
26158;BMP280;67284;44.782;10.282;2023-08-06T00:02:18;99848.53;;;23.52
26158;BMP280;67284;44.782;10.282;2023-08-06T00:07:10;99856.63;;;23.49
26158;BMP280;67284;44.782;10.282;2023-08-06T00:12:02;99858.75;;;23.44
26158;BMP280;67284;44.782;10.282;2023-08-06T00:16:54;99852.91;;;23.41
26158;BMP280;67284;44.782;10.282;2023-08-06T00:21:46;99851.56;;;23.35
26158;BMP280;67284;44.782;10.282;2023-08-06T00:26:38;99854.56;;;23.31
26158;BMP280;67284;44.782;10.282;2023-08-06T00:31:30;99860.16;;;23.26
26158;BMP280;67284;44.782;10.282;2023-08-06T00:36:22;99857.00;;;23.21
26158;BMP280;67284;44.782;10.282;2023-08-06T00:41:14;99856.50;;;23.16
26158;BMP280;67284;44.782;10.282;2023-08-06T00:46:06;99840.28;;;23.11
26158;BMP280;67284;44.782;10.282;2023-08-06T00:50:58;99830.72;;;23.10
26158;BMP280;67284;44.782;10.282;2023-08-06T00:55:50;99830.00;;;23.08
26158;BMP280;67284;44.782;10.282;2023-08-06T01:00:43;99830.84;;;23.09
26158;BMP280;67284;44.782;10.282;2023-08-06T01:05:35;99828.31;;;23.07
26158;BMP280;67284;44.782;10.282;2023-08-06T01:15:49;99831.28;;;23.03
26158;BMP280;67284;44.782;10.282;2023-08-06T01:20:41;99840.44;;;22.98
26158;BMP280;67284;44.782;10.282;2023-08-06T01:25:36;99831.94;;;22.94
26158;BMP280;67284;44.782;10.282;2023-08-06T01:30:33;99832.16;;;22.91
26158;BMP280;67284;44.782;10.282;2023-08-06T01:35:29;99832.16;;;22.91
26158;BMP280;67284;44.782;10.282;2023-08-06T01:40:23;99827.75;;;22.92
26158;BMP280;67284;44.782;10.282;2023-08-06T01:45:14;99820.81;;;22.91
26158;BMP280;67284;44.782;10.282;2023-08-06T01:50:06;99819.16;;;22.90
26158;BMP280;67284;44.782;10.282;2023-08-06T01:54:59;99822.75;;;22.89
26158;BMP280;67284;44.782;10.282;2023-08-06T01:59:50;99818.44;;;22.88
26158;BMP280;67284;44.782;10.282;2023-08-06T02:04:42;99817.59;;;22.87
26158;BMP280;67284;44.782;10.282;2023-08-06T02:09:36;99800.06;;;22.88
26158;BMP280;67284;44.782;10.282;2023-08-06T02:14:28;99801.88;;;22.87
26158;BMP280;67284;44.782;10.282;2023-08-06T02:19:19;99805.31;;;22.88
26158;BMP280;67284;44.782;10.282;2023-08-06T02:24:11;99786.03;;;22.89
26158;BMP280;67284;44.782;10.282;2023-08-06T02:29:03;99796.50;;;22.89
26158;BMP280;67284;44.782;10.282;2023-08-06T02:33:55;99796.50;;;22.89
26158;BMP280;67284;44.782;10.282;2023-08-06T02:38:47;99803.53;;;22.88
26158;BMP280;67284;44.782;10.282;2023-08-06T02:43:39;99800.06;;;22.88
26158;BMP280;67284;44.782;10.282;2023-08-06T02:48:31;99789.59;;;22.88
26158;BMP280;67284;44.782;10.282;2023-08-06T02:53:23;99782.53;;;22.88
26158;BMP280;67284;44.782;10.282;2023-08-06T02:58:15;99782.53;;;22.88
26158;BMP280;67284;44.782;10.282;2023-08-06T03:03:19;99775.41;;;22.90
26158;BMP280;67284;44.782;10.282;2023-08-06T03:08:18;99775.53;;;22.89
26158;BMP280;67284;44.782;10.282;2023-08-06T03:13:16;99769.53;;;22.87
26158;BMP280;67284;44.782;10.282;2023-08-06T03:18:08;99776.59;;;22.86
26158;BMP280;67284;44.782;10.282;2023-08-06T03:23:00;99773.97;;;22.86
26158;BMP280;67284;44.782;10.282;2023-08-06T03:27:54;99777.41;;;22.87
26158;BMP280;67284;44.782;10.282;2023-08-06T03:32:46;99794.19;;;22.84
26158;BMP280;67284;44.782;10.282;2023-08-06T03:37:41;99803.88;;;22.84
26158;BMP280;67284;44.782;10.282;2023-08-06T03:42:33;99790.75;;;22.84
26158;BMP280;67284;44.782;10.282;2023-08-06T03:47:26;99783.00;;;22.82
26158;BMP280;67284;44.782;10.282;2023-08-06T03:52:18;99781.31;;;22.81
26158;BMP280;67284;44.782;10.282;2023-08-06T03:57:11;99775.47;;;22.78
26158;BMP280;67284;44.782;10.282;2023-08-06T04:02:03;99780.84;;;22.76
26158;BMP280;67284;44.782;10.282;2023-08-06T04:06:55;99777.34;;;22.76
26158;BMP280;67284;44.782;10.282;2023-08-06T04:11:47;99783.56;;;22.75
26158;BMP280;67284;44.782;10.282;2023-08-06T04:16:39;99780.09;;;22.74
26158;BMP280;67284;44.782;10.282;2023-08-06T04:21:32;99786.19;;;22.75
26158;BMP280;67284;44.782;10.282;2023-08-06T04:26:23;99774.72;;;22.76
26158;BMP280;67284;44.782;10.282;2023-08-06T04:31:15;99781.66;;;22.77
26158;BMP280;67284;44.782;10.282;2023-08-06T04:36:09;99778.34;;;22.75
26158;BMP280;67284;44.782;10.282;2023-08-06T04:41:02;99775.72;;;22.75
26158;BMP280;67284;44.782;10.282;2023-08-06T04:45:55;99782.72;;;22.74
26158;BMP280;67284;44.782;10.282;2023-08-06T04:50:49;99765.22;;;22.75
26158;BMP280;67284;44.782;10.282;2023-08-06T04:55:41;99760.91;;;22.74
26158;BMP280;67284;44.782;10.282;2023-08-06T05:00:33;99762.72;;;22.73
26158;BMP280;67284;44.782;10.282;2023-08-06T05:05:25;99760.81;;;22.75
26158;BMP280;67284;44.782;10.282;2023-08-06T05:10:17;99766.16;;;22.74
26158;BMP280;67284;44.782;10.282;2023-08-06T05:15:09;99771.53;;;22.72
26158;BMP280;67284;44.782;10.282;2023-08-06T05:20:00;99769.00;;;22.71
26158;BMP280;67284;44.782;10.282;2023-08-06T05:24:52;99767.78;;;22.64
26158;BMP280;67284;44.782;10.282;2023-08-06T05:29:45;99760.97;;;22.61
26158;BMP280;67284;44.782;10.282;2023-08-06T05:34:36;99755.13;;;22.58
26158;BMP280;67284;44.782;10.282;2023-08-06T05:39:28;99759.63;;;22.56
26158;BMP280;67284;44.782;10.282;2023-08-06T05:44:21;99744.25;;;22.51
26158;BMP280;67284;44.782;10.282;2023-08-06T05:49:13;99771.50;;;22.49
26158;BMP280;67284;44.782;10.282;2023-08-06T05:54:05;99765.44;;;22.49
26158;BMP280;67284;44.782;10.282;2023-08-06T05:58:57;99770.78;;;22.47
26158;BMP280;67284;44.782;10.282;2023-08-06T06:03:48;99760.41;;;22.46
26158;BMP280;67284;44.782;10.282;2023-08-06T06:08:40;99771.72;;;22.46
26158;BMP280;67284;44.782;10.282;2023-08-06T06:13:32;99776.84;;;22.48
26158;BMP280;67284;44.782;10.282;2023-08-06T06:18:24;99776.53;;;22.52
26158;BMP280;67284;44.782;10.282;2023-08-06T06:23:16;99772.97;;;22.53
26158;BMP280;67284;44.782;10.282;2023-08-06T06:28:08;99776.09;;;22.58
26158;BMP280;67284;44.782;10.282;2023-08-06T06:32:59;99775.88;;;22.61
26158;BMP280;67284;44.782;10.282;2023-08-06T06:37:51;99786.13;;;22.64
26158;BMP280;67284;44.782;10.282;2023-08-06T06:42:43;99799.72;;;22.69
26158;BMP280;67284;44.782;10.282;2023-08-06T06:47:35;99813.47;;;22.72
26158;BMP280;67284;44.782;10.282;2023-08-06T06:52:27;99811.44;;;22.76
26158;BMP280;67284;44.782;10.282;2023-08-06T06:57:18;99806.09;;;22.77
26158;BMP280;67284;44.782;10.282;2023-08-06T07:02:10;99795.50;;;22.79
26158;BMP280;67284;44.782;10.282;2023-08-06T07:07:02;99804.09;;;22.81
26158;BMP280;67284;44.782;10.282;2023-08-06T07:11:54;99804.69;;;22.84
26158;BMP280;67284;44.782;10.282;2023-08-06T07:16:46;99794.09;;;22.86
26158;BMP280;67284;44.782;10.282;2023-08-06T07:21:38;99801.75;;;22.89
26158;BMP280;67284;44.782;10.282;2023-08-06T07:26:30;99803.41;;;22.90
26158;BMP280;67284;44.782;10.282;2023-08-06T07:31:22;99800.66;;;22.91
26158;BMP280;67284;44.782;10.282;2023-08-06T07:36:14;99809.16;;;22.95
26158;BMP280;67284;44.782;10.282;2023-08-06T07:41:07;99818.84;;;22.94
26158;BMP280;67284;44.782;10.282;2023-08-06T07:45:59;99827.53;;;22.95
26158;BMP280;67284;44.782;10.282;2023-08-06T07:50:55;99824.81;;;22.96
26158;BMP280;67284;44.782;10.282;2023-08-06T07:55:51;99813.28;;;22.99
26158;BMP280;67284;44.782;10.282;2023-08-06T08:00:43;99811.38;;;23.01
26158;BMP280;67284;44.782;10.282;2023-08-06T08:05:37;99823.44;;;23.03
26158;BMP280;67284;44.782;10.282;2023-08-06T08:10:29;99807.56;;;23.04
26158;BMP280;67284;44.782;10.282;2023-08-06T08:15:20;99809.03;;;23.08
26158;BMP280;67284;44.782;10.282;2023-08-06T08:20:12;99799.25;;;23.10
26158;BMP280;67284;44.782;10.282;2023-08-06T08:25:05;99804.13;;;23.15
26158;BMP280;67284;44.782;10.282;2023-08-06T08:29:56;99794.50;;;23.15
26158;BMP280;67284;44.782;10.282;2023-08-06T08:34:48;99806.44;;;23.19
26158;BMP280;67284;44.782;10.282;2023-08-06T08:39:40;99791.28;;;23.23
26158;BMP280;67284;44.782;10.282;2023-08-06T08:44:32;99790.94;;;23.27
26158;BMP280;67284;44.782;10.282;2023-08-06T08:49:26;99784.75;;;23.28
26158;BMP280;67284;44.782;10.282;2023-08-06T08:54:21;99790.28;;;23.36
26158;BMP280;67284;44.782;10.282;2023-08-06T08:59:14;99815.09;;;23.43
26158;BMP280;67284;44.782;10.282;2023-08-06T09:04:07;99807.94;;;23.45
26158;BMP280;67284;44.782;10.282;2023-08-06T09:09:08;99830.16;;;23.52
26158;BMP280;67284;44.782;10.282;2023-08-06T09:14:00;99827.91;;;23.58
26158;BMP280;67284;44.782;10.282;2023-08-06T09:18:54;99825.03;;;23.61
26158;BMP280;67284;44.782;10.282;2023-08-06T09:23:47;99817.75;;;23.65
26158;BMP280;67284;44.782;10.282;2023-08-06T09:28:39;99818.03;;;23.73
26158;BMP280;67284;44.782;10.282;2023-08-06T09:33:36;99812.69;;;23.74
26158;BMP280;67284;44.782;10.282;2023-08-06T09:38:37;99823.66;;;23.79
26158;BMP280;67284;44.782;10.282;2023-08-06T09:43:30;99816.97;;;23.86
26158;BMP280;67284;44.782;10.282;2023-08-06T09:48:24;99822.72;;;23.91
26158;BMP280;67284;44.782;10.282;2023-08-06T09:53:16;99813.03;;;23.92
26158;BMP280;67284;44.782;10.282;2023-08-06T09:58:09;99822.72;;;23.91
26158;BMP280;67284;44.782;10.282;2023-08-06T10:03:01;99827.59;;;23.96
26158;BMP280;67284;44.782;10.282;2023-08-06T10:07:53;99812.22;;;24.02
26158;BMP280;67284;44.782;10.282;2023-08-06T10:12:49;99811.16;;;24.05
26158;BMP280;67284;44.782;10.282;2023-08-06T10:17:43;99816.75;;;24.11
26158;BMP280;67284;44.782;10.282;2023-08-06T10:22:45;99816.50;;;24.14
26158;BMP280;67284;44.782;10.282;2023-08-06T10:27:52;99820.56;;;24.18
26158;BMP280;67284;44.782;10.282;2023-08-06T10:32:48;99811.72;;;24.19
26158;BMP280;67284;44.782;10.282;2023-08-06T10:37:44;99807.31;;;24.19
26158;BMP280;67284;44.782;10.282;2023-08-06T10:42:40;99813.16;;;24.23
26158;BMP280;67284;44.782;10.282;2023-08-06T10:47:38;99817.81;;;24.30
26158;BMP280;67284;44.782;10.282;2023-08-06T10:52:34;99818.34;;;24.35
26158;BMP280;67284;44.782;10.282;2023-08-06T10:57:26;99805.88;;;24.37
26158;BMP280;67284;44.782;10.282;2023-08-06T11:02:18;99801.13;;;24.42
26158;BMP280;67284;44.782;10.282;2023-08-06T11:07:10;99804.56;;;24.43
26158;BMP280;67284;44.782;10.282;2023-08-06T11:12:02;99803.50;;;24.45
26158;BMP280;67284;44.782;10.282;2023-08-06T11:16:54;99805.75;;;24.50
26158;BMP280;67284;44.782;10.282;2023-08-06T11:21:46;99793.06;;;24.55
26158;BMP280;67284;44.782;10.282;2023-08-06T11:26:39;99788.66;;;24.55
26158;BMP280;67284;44.782;10.282;2023-08-06T11:31:31;99781.47;;;24.57
26158;BMP280;67284;44.782;10.282;2023-08-06T11:36:31;99774.31;;;24.59
26158;BMP280;67284;44.782;10.282;2023-08-06T11:41:23;99772.94;;;24.64
26158;BMP280;67284;44.782;10.282;2023-08-06T11:46:15;99770.91;;;24.68
26158;BMP280;67284;44.782;10.282;2023-08-06T11:51:12;99767.47;;;24.67
26158;BMP280;67284;44.782;10.282;2023-08-06T11:56:06;99757.75;;;24.68
26158;BMP280;67284;44.782;10.282;2023-08-06T12:00:58;99773.94;;;24.63
26158;BMP280;67284;44.782;10.282;2023-08-06T12:05:53;99764.22;;;24.64
26158;BMP280;67284;44.782;10.282;2023-08-06T12:10:46;99761.34;;;24.67
26158;BMP280;67284;44.782;10.282;2023-08-06T12:15:38;99763.38;;;24.74
26158;BMP280;67284;44.782;10.282;2023-08-06T12:20:30;99759.63;;;24.77
26158;BMP280;67284;44.782;10.282;2023-08-06T12:25:22;99754.50;;;24.75
26158;BMP280;67284;44.782;10.282;2023-08-06T12:30:15;99728.41;;;24.83
26158;BMP280;67284;44.782;10.282;2023-08-06T12:35:07;99732.97;;;24.81
26158;BMP280;67284;44.782;10.282;2023-08-06T12:39:59;99734.06;;;24.79
26158;BMP280;67284;44.782;10.282;2023-08-06T12:45:10;99728.84;;;24.88
26158;BMP280;67284;44.782;10.282;2023-08-06T12:50:02;99731.38;;;24.90
26158;BMP280;67284;44.782;10.282;2023-08-06T12:54:53;99728.03;;;24.88
26158;BMP280;67284;44.782;10.282;2023-08-06T12:59:45;99718.44;;;24.87
26158;BMP280;67284;44.782;10.282;2023-08-06T13:04:37;99728.16;;;24.86
26158;BMP280;67284;44.782;10.282;2023-08-06T13:09:29;99732.72;;;24.84
26158;BMP280;67284;44.782;10.282;2023-08-06T13:14:23;99723.94;;;24.95
26158;BMP280;67284;44.782;10.282;2023-08-06T13:19:15;99725.59;;;24.96
26158;BMP280;67284;44.782;10.282;2023-08-06T13:24:08;99721.16;;;24.96
26158;BMP280;67284;44.782;10.282;2023-08-06T13:29:00;99728.66;;;25.01
26158;BMP280;67284;44.782;10.282;2023-08-06T13:33:54;99730.38;;;25.02
26158;BMP280;67284;44.782;10.282;2023-08-06T13:38:47;99722.50;;;25.02
26158;BMP280;67284;44.782;10.282;2023-08-06T13:43:39;99722.34;;;25.03
26158;BMP280;67284;44.782;10.282;2023-08-06T13:48:31;99731.06;;;25.04
26158;BMP280;67284;44.782;10.282;2023-08-06T13:53:23;99711.25;;;25.00
26158;BMP280;67284;44.782;10.282;2023-08-06T13:58:16;99721.53;;;25.03
26158;BMP280;67284;44.782;10.282;2023-08-06T14:03:08;99712.06;;;25.00
26158;BMP280;67284;44.782;10.282;2023-08-06T14:08:01;99713.13;;;24.98
26158;BMP280;67284;44.782;10.282;2023-08-06T14:12:52;99710.38;;;24.99
26158;BMP280;67284;44.782;10.282;2023-08-06T14:18:00;99710.75;;;25.06
26158;BMP280;67284;44.782;10.282;2023-08-06T14:22:52;99718.00;;;25.13
26158;BMP280;67284;44.782;10.282;2023-08-06T14:27:44;99719.06;;;25.11
26158;BMP280;67284;44.782;10.282;2023-08-06T14:32:36;99705.78;;;25.12
26158;BMP280;67284;44.782;10.282;2023-08-06T14:37:27;99706.19;;;25.08
26158;BMP280;67284;44.782;10.282;2023-08-06T14:42:19;99719.19;;;25.09
26158;BMP280;67284;44.782;10.282;2023-08-06T14:47:11;99713.38;;;25.06
26158;BMP280;67284;44.782;10.282;2023-08-06T14:52:04;99715.75;;;25.09
26158;BMP280;67284;44.782;10.282;2023-08-06T14:56:56;99703.53;;;25.08
26158;BMP280;67284;44.782;10.282;2023-08-06T15:01:48;99713.78;;;25.01
26158;BMP280;67284;44.782;10.282;2023-08-06T15:06:40;99729.03;;;25.07
26158;BMP280;67284;44.782;10.282;2023-08-06T15:11:32;99746.50;;;25.08
26158;BMP280;67284;44.782;10.282;2023-08-06T15:16:24;99728.66;;;25.01
26158;BMP280;67284;44.782;10.282;2023-08-06T15:21:15;99735.16;;;24.97
26158;BMP280;67284;44.782;10.282;2023-08-06T15:26:08;99740.41;;;24.97
26158;BMP280;67284;44.782;10.282;2023-08-06T15:31:01;99749.16;;;24.97
26158;BMP280;67284;44.782;10.282;2023-08-06T15:35:53;99748.19;;;24.98
26158;BMP280;67284;44.782;10.282;2023-08-06T15:40:45;99751.66;;;24.99
26158;BMP280;67284;44.782;10.282;2023-08-06T15:45:38;99759.09;;;24.94
26158;BMP280;67284;44.782;10.282;2023-08-06T15:50:30;99767.22;;;24.91
26158;BMP280;67284;44.782;10.282;2023-08-06T15:55:22;99765.44;;;24.91
26158;BMP280;67284;44.782;10.282;2023-08-06T16:00:14;99771.41;;;24.93
26158;BMP280;67284;44.782;10.282;2023-08-06T16:05:06;99773.34;;;24.91
26158;BMP280;67284;44.782;10.282;2023-08-06T16:09:58;99763.78;;;24.90
26158;BMP280;67284;44.782;10.282;2023-08-06T16:14:50;99773.47;;;24.90
26158;BMP280;67284;44.782;10.282;2023-08-06T16:19:42;99771.19;;;24.85
26158;BMP280;67284;44.782;10.282;2023-08-06T16:24:35;99776.72;;;24.82
26158;BMP280;67284;44.782;10.282;2023-08-06T16:29:29;99772.53;;;24.80
26158;BMP280;67284;44.782;10.282;2023-08-06T16:34:21;99783.91;;;24.80
26158;BMP280;67284;44.782;10.282;2023-08-06T16:39:13;99793.00;;;24.76
26158;BMP280;67284;44.782;10.282;2023-08-06T16:44:05;99788.94;;;24.72
26158;BMP280;67284;44.782;10.282;2023-08-06T16:48:58;99791.44;;;24.74
26158;BMP280;67284;44.782;10.282;2023-08-06T16:53:51;99801.72;;;24.77
26158;BMP280;67284;44.782;10.282;2023-08-06T16:58:42;99809.88;;;24.74
26158;BMP280;67284;44.782;10.282;2023-08-06T17:03:34;99812.31;;;24.66
26158;BMP280;67284;44.782;10.282;2023-08-06T17:08:27;99819.34;;;24.55
26158;BMP280;67284;44.782;10.282;2023-08-06T17:13:24;99823.78;;;24.43
26158;BMP280;67284;44.782;10.282;2023-08-06T17:18:16;99829.69;;;24.36
26158;BMP280;67284;44.782;10.282;2023-08-06T17:23:08;99837.16;;;24.29
26158;BMP280;67284;44.782;10.282;2023-08-06T17:28:02;99842.78;;;24.25
26158;BMP280;67284;44.782;10.282;2023-08-06T17:32:57;99839.34;;;24.24
26158;BMP280;67284;44.782;10.282;2023-08-06T17:37:49;99840.28;;;24.23
26158;BMP280;67284;44.782;10.282;2023-08-06T17:42:41;99849.09;;;24.22
26158;BMP280;67284;44.782;10.282;2023-08-06T17:47:33;99852.94;;;24.18
26158;BMP280;67284;44.782;10.282;2023-08-06T17:52:29;99862.03;;;24.14
26158;BMP280;67284;44.782;10.282;2023-08-06T17:57:20;99862.97;;;24.13
26158;BMP280;67284;44.782;10.282;2023-08-06T18:02:12;99871.81;;;24.12
26158;BMP280;67284;44.782;10.282;2023-08-06T18:07:04;99875.28;;;24.13
26158;BMP280;67284;44.782;10.282;2023-08-06T18:11:57;99872.78;;;24.11
26158;BMP280;67284;44.782;10.282;2023-08-06T18:16:49;99880.56;;;24.13
26158;BMP280;67284;44.782;10.282;2023-08-06T18:21:40;99886.13;;;24.08
26158;BMP280;67284;44.782;10.282;2023-08-06T18:26:32;99890.69;;;24.07
26158;BMP280;67284;44.782;10.282;2023-08-06T18:31:24;99892.59;;;24.05
26158;BMP280;67284;44.782;10.282;2023-08-06T18:36:16;99894.50;;;24.03
26158;BMP280;67284;44.782;10.282;2023-08-06T18:41:08;99908.56;;;24.02
26158;BMP280;67284;44.782;10.282;2023-08-06T18:45:59;99919.09;;;24.02
26158;BMP280;67284;44.782;10.282;2023-08-06T18:50:52;99913.94;;;24.00
26158;BMP280;67284;44.782;10.282;2023-08-06T18:55:48;99922.69;;;24.01
26158;BMP280;67284;44.782;10.282;2023-08-06T19:00:40;99947.41;;;23.98
26158;BMP280;67284;44.782;10.282;2023-08-06T19:05:32;99952.78;;;23.97
26158;BMP280;67284;44.782;10.282;2023-08-06T19:10:24;99952.16;;;23.93
26158;BMP280;67284;44.782;10.282;2023-08-06T19:15:20;99960.16;;;23.92
26158;BMP280;67284;44.782;10.282;2023-08-06T19:20:11;99966.38;;;23.91
26158;BMP280;67284;44.782;10.282;2023-08-06T19:25:03;99981.16;;;23.92
26158;BMP280;67284;44.782;10.282;2023-08-06T19:29:55;99986.41;;;23.92
26158;BMP280;67284;44.782;10.282;2023-08-06T19:34:47;99982.97;;;23.91
26158;BMP280;67284;44.782;10.282;2023-08-06T19:39:39;99992.53;;;23.92
26158;BMP280;67284;44.782;10.282;2023-08-06T19:44:31;99990.72;;;23.93
26158;BMP280;67284;44.782;10.282;2023-08-06T19:49:23;99999.44;;;23.93
26158;BMP280;67284;44.782;10.282;2023-08-06T19:54:17;100011.75;;;23.93
26158;BMP280;67284;44.782;10.282;2023-08-06T19:59:10;100021.53;;;23.91
26158;BMP280;67284;44.782;10.282;2023-08-06T20:04:02;100032.28;;;23.88
26158;BMP280;67284;44.782;10.282;2023-08-06T20:08:54;100035.97;;;23.85
26158;BMP280;67284;44.782;10.282;2023-08-06T20:13:46;100037.72;;;23.85
26158;BMP280;67284;44.782;10.282;2023-08-06T20:18:39;100044.09;;;23.82
26158;BMP280;67284;44.782;10.282;2023-08-06T20:23:31;100052.91;;;23.81
26158;BMP280;67284;44.782;10.282;2023-08-06T20:28:24;100059.22;;;23.79
26158;BMP280;67284;44.782;10.282;2023-08-06T20:33:18;100059.22;;;23.79
26158;BMP280;67284;44.782;10.282;2023-08-06T20:38:10;100069.13;;;23.75
26158;BMP280;67284;44.782;10.282;2023-08-06T20:43:02;100073.50;;;23.75
26158;BMP280;67284;44.782;10.282;2023-08-06T20:47:54;100071.84;;;23.74
26158;BMP280;67284;44.782;10.282;2023-08-06T20:52:46;100072.91;;;23.71
26158;BMP280;67284;44.782;10.282;2023-08-06T20:57:39;100083.66;;;23.68
26158;BMP280;67284;44.782;10.282;2023-08-06T21:02:31;100087.09;;;23.69
26158;BMP280;67284;44.782;10.282;2023-08-06T21:07:23;100084.47;;;23.69
26158;BMP280;67284;44.782;10.282;2023-08-06T21:12:15;100093.28;;;23.68
26158;BMP280;67284;44.782;10.282;2023-08-06T21:17:07;100097.72;;;23.67
26158;BMP280;67284;44.782;10.282;2023-08-06T21:21:58;100119.56;;;23.68
26158;BMP280;67284;44.782;10.282;2023-08-06T21:26:50;100119.56;;;23.68
26158;BMP280;67284;44.782;10.282;2023-08-06T21:31:42;100124.09;;;23.66
26158;BMP280;67284;44.782;10.282;2023-08-06T21:36:34;100129.41;;;23.64
26158;BMP280;67284;44.782;10.282;2023-08-06T21:41:26;100143.72;;;23.60
26158;BMP280;67284;44.782;10.282;2023-08-06T21:46:20;100151.69;;;23.59
26158;BMP280;67284;44.782;10.282;2023-08-06T21:51:14;100155.16;;;23.59
26158;BMP280;67284;44.782;10.282;2023-08-06T21:56:08;100151.69;;;23.59
26158;BMP280;67284;44.782;10.282;2023-08-06T22:01:01;100158.88;;;23.57
26158;BMP280;67284;44.782;10.282;2023-08-06T22:05:53;100168.63;;;23.55
26158;BMP280;67284;44.782;10.282;2023-08-06T22:10:47;100179.13;;;23.55
26158;BMP280;67284;44.782;10.282;2023-08-06T22:15:39;100200.88;;;23.57
26158;BMP280;67284;44.782;10.282;2023-08-06T22:20:31;100197.28;;;23.58
26158;BMP280;67284;44.782;10.282;2023-08-06T22:25:24;100208.00;;;23.55
26158;BMP280;67284;44.782;10.282;2023-08-06T22:30:16;100211.56;;;23.54
26158;BMP280;67284;44.782;10.282;2023-08-06T22:35:08;100207.59;;;23.49
26158;BMP280;67284;44.782;10.282;2023-08-06T22:40:00;100210.53;;;23.44
26158;BMP280;67284;44.782;10.282;2023-08-06T22:44:53;100208.13;;;23.41
26158;BMP280;67284;44.782;10.282;2023-08-06T22:49:45;100210.97;;;23.38
26158;BMP280;67284;44.782;10.282;2023-08-06T22:54:38;100223.38;;;23.36
26158;BMP280;67284;44.782;10.282;2023-08-06T22:59:30;100229.56;;;23.35
26158;BMP280;67284;44.782;10.282;2023-08-06T23:04:22;100237.44;;;23.35
26158;BMP280;67284;44.782;10.282;2023-08-06T23:09:14;100248.16;;;23.32
26158;BMP280;67284;44.782;10.282;2023-08-06T23:14:06;100253.50;;;23.31
26158;BMP280;67284;44.782;10.282;2023-08-06T23:18:58;100269.34;;;23.29
26158;BMP280;67284;44.782;10.282;2023-08-06T23:23:50;100268.59;;;23.27
26158;BMP280;67284;44.782;10.282;2023-08-06T23:28:42;100271.22;;;23.27
26158;BMP280;67284;44.782;10.282;2023-08-06T23:33:36;100266.06;;;23.26
26158;BMP280;67284;44.782;10.282;2023-08-06T23:38:29;100267.00;;;23.25
26158;BMP280;67284;44.782;10.282;2023-08-06T23:43:21;100269.97;;;23.20
26158;BMP280;67284;44.782;10.282;2023-08-06T23:48:13;100276.91;;;23.21
26158;BMP280;67284;44.782;10.282;2023-08-06T23:53:05;100270.81;;;23.21
26158;BMP280;67284;44.782;10.282;2023-08-06T23:57:57;100280.44;;;23.20
